createdAt,value
2018-05-31T00:00:27.059Z,15.90
2018-05-31T00:02:54.770Z,15.57
2018-05-31T00:05:23.209Z,21.60
2018-05-31T00:07:50.922Z,18.10
2018-05-31T00:10:19.363Z,17.87
2018-05-31T00:12:47.086Z,19.70
2018-05-31T00:15:14.759Z,19.97
2018-05-31T00:17:42.443Z,18.87
2018-05-31T00:20:10.162Z,20.20
2018-05-31T00:22:37.917Z,18.03
2018-05-31T00:25:05.632Z,17.83
2018-05-31T00:27:33.292Z,20.03
2018-05-31T00:30:01.009Z,15.63
2018-05-31T00:32:29.385Z,19.47
2018-05-31T00:34:57.118Z,18.07
2018-05-31T00:37:24.846Z,18.27
2018-05-31T00:39:52.516Z,21.50
2018-05-31T00:42:20.196Z,18.97
2018-05-31T00:44:47.919Z,19.50
2018-05-31T00:47:15.623Z,19.37
2018-05-31T00:49:43.358Z,22.20
2018-05-31T00:52:11.075Z,18.87
2018-05-31T00:54:39.519Z,16.90
2018-05-31T00:57:07.227Z,20.30
2018-05-31T00:59:34.975Z,18.57
2018-05-31T01:02:03.415Z,19.83
2018-05-31T01:04:31.126Z,18.77
2018-05-31T01:06:59.572Z,19.07
2018-05-31T01:09:27.291Z,18.77
2018-05-31T01:11:55.025Z,18.43
2018-05-31T01:14:22.745Z,18.70
2018-05-31T01:16:50.416Z,21.57
2018-05-31T01:19:18.081Z,20.70
2018-05-31T01:21:45.798Z,21.73
2018-05-31T01:24:13.470Z,20.40
2018-05-31T01:26:41.187Z,18.20
2018-05-31T01:29:08.863Z,17.07
2018-05-31T01:31:37.349Z,17.93
2018-05-31T01:34:05.787Z,17.83
2018-05-31T01:36:33.509Z,16.77
2018-05-31T01:39:01.231Z,16.10
2018-05-31T01:41:28.951Z,15.77
2018-05-31T01:43:56.699Z,14.03
2018-05-31T01:46:24.362Z,15.40
2018-05-31T01:48:52.035Z,15.63
2018-05-31T01:51:19.747Z,16.63
2018-05-31T01:53:47.427Z,16.60
2018-05-31T01:56:15.903Z,16.13
2018-05-31T01:58:44.343Z,18.17
2018-05-31T02:01:12.072Z,15.63
2018-05-31T02:03:39.790Z,15.50
2018-05-31T02:06:07.518Z,14.90
2018-05-31T02:08:35.247Z,18.20
2018-05-31T02:11:03.674Z,15.47
2018-05-31T02:13:31.398Z,15.17
2018-05-31T02:15:59.128Z,18.30
2018-05-31T02:18:27.631Z,16.93
2018-05-31T02:20:56.078Z,15.40
2018-05-31T02:23:23.757Z,15.67
2018-05-31T02:25:51.507Z,16.20
2018-05-31T02:28:19.976Z,16.57
2018-05-31T02:30:47.696Z,16.47
2018-05-31T02:33:15.387Z,17.63
2018-05-31T02:35:43.060Z,15.87
2018-05-31T02:38:10.768Z,15.53
2018-05-31T02:40:39.206Z,14.93
2018-05-31T02:43:06.922Z,15.60
2018-05-31T02:45:34.638Z,15.80
2018-05-31T02:48:02.379Z,16.07
2018-05-31T02:50:30.071Z,14.67
2018-05-31T02:52:57.812Z,17.77
2018-05-31T02:55:25.480Z,15.80
2018-05-31T02:57:53.193Z,17.57
2018-05-31T03:00:21.624Z,14.37
2018-05-31T03:02:49.343Z,16.03
2018-05-31T03:05:17.771Z,15.13
2018-05-31T03:07:45.525Z,16.17
2018-05-31T03:10:13.195Z,16.73
2018-05-31T03:12:40.897Z,17.17
2018-05-31T03:15:09.375Z,15.43
2018-05-31T03:17:37.813Z,14.73
2018-05-31T03:20:05.523Z,16.60
2018-05-31T03:22:34.008Z,16.47
2018-05-31T03:25:02.489Z,17.50
2018-05-31T03:27:30.223Z,16.60
2018-05-31T03:29:57.903Z,16.97
2018-05-31T03:32:25.632Z,15.60
2018-05-31T03:34:54.131Z,18.27
2018-05-31T03:37:21.822Z,17.27
2018-05-31T03:39:49.488Z,16.97
2018-05-31T03:42:17.203Z,17.57
2018-05-31T03:44:45.676Z,19.63
2018-05-31T03:47:13.410Z,18.80
2018-05-31T03:49:41.101Z,16.93
2018-05-31T03:52:08.815Z,18.43
2018-05-31T03:54:38.126Z,16.17
2018-05-31T03:57:05.901Z,16.77
2018-05-31T03:59:33.591Z,19.00
2018-05-31T04:02:01.283Z,17.33
2018-05-31T04:04:29.774Z,18.67
2018-05-31T04:06:58.216Z,19.80
2018-05-31T04:09:25.929Z,20.13
2018-05-31T04:11:54.361Z,16.93
2018-05-31T04:14:22.092Z,18.67
2018-05-31T04:16:50.678Z,18.47
2018-05-31T04:19:18.360Z,20.17
2018-05-31T04:21:46.100Z,17.13
2018-05-31T04:24:13.792Z,18.87
2018-05-31T04:26:41.472Z,17.37
2018-05-31T04:29:09.259Z,17.90
2018-05-31T04:31:37.688Z,18.40
2018-05-31T04:34:05.417Z,18.63
2018-05-31T04:36:33.129Z,17.67
2018-05-31T04:39:00.844Z,21.90
2018-05-31T04:41:28.535Z,17.97
2018-05-31T04:43:56.258Z,17.40
2018-05-31T04:46:24.712Z,19.20
2018-05-31T04:48:52.426Z,19.40
2018-05-31T04:51:20.095Z,17.43
2018-05-31T04:53:47.823Z,17.00
2018-05-31T04:56:16.266Z,18.73
2018-05-31T04:58:43.963Z,17.80
2018-05-31T05:01:12.448Z,16.37
2018-05-31T05:03:40.885Z,17.93
2018-05-31T05:06:08.591Z,16.93
2018-05-31T05:08:37.076Z,16.30
2018-05-31T05:11:04.799Z,15.73
2018-05-31T05:13:32.471Z,18.27
2018-05-31T05:16:00.555Z,17.23
2018-05-31T05:18:29.043Z,16.23
2018-05-31T05:20:57.490Z,18.63
2018-05-31T05:23:25.203Z,17.97
2018-05-31T05:25:52.887Z,16.33
2018-05-31T05:28:20.629Z,24.80
2018-05-31T05:30:48.308Z,15.37
2018-05-31T05:33:16.039Z,17.27
2018-05-31T05:35:43.735Z,16.43
2018-05-31T05:38:11.455Z,16.30
2018-05-31T05:40:39.197Z,15.83
2018-05-31T05:43:06.863Z,16.33
2018-05-31T05:45:34.584Z,17.10
2018-05-31T05:48:02.267Z,15.30
2018-05-31T05:50:29.987Z,15.50
2018-05-31T05:52:58.415Z,16.07
2018-05-31T05:55:26.133Z,15.10
2018-05-31T05:57:54.610Z,16.27
2018-05-31T06:00:22.296Z,15.23
2018-05-31T06:02:49.999Z,15.87
2018-05-31T06:05:17.667Z,14.90
2018-05-31T06:07:46.171Z,15.73
2018-05-31T06:10:14.667Z,17.13
2018-05-31T06:12:43.135Z,14.47
2018-05-31T06:15:11.569Z,14.73
2018-05-31T06:17:39.240Z,19.50
2018-05-31T06:20:06.995Z,13.90
2018-05-31T06:22:34.677Z,17.20
2018-05-31T06:25:03.168Z,15.03
2018-05-31T06:27:32.123Z,13.27
2018-05-31T06:29:59.842Z,13.30
2018-05-31T06:32:28.660Z,15.03
2018-05-31T06:34:56.449Z,11.90
2018-05-31T06:37:24.165Z,13.97
2018-05-31T06:39:52.625Z,11.83
2018-05-31T06:42:20.280Z,13.83
2018-05-31T06:44:48.007Z,11.57
2018-05-31T06:47:15.684Z,14.33
2018-05-31T06:49:43.393Z,15.07
2018-05-31T06:52:11.814Z,13.53
2018-05-31T06:54:39.537Z,10.83
2018-05-31T06:57:08.004Z,12.17
2018-05-31T06:59:36.437Z,11.20
2018-05-31T07:02:04.138Z,11.15
2018-05-31T07:04:31.791Z,13.37
2018-05-31T07:06:59.507Z,11.98
2018-05-31T07:09:27.178Z,11.57
2018-05-31T07:11:54.848Z,14.07
2018-05-31T07:14:22.560Z,10.95
2018-05-31T07:16:51.036Z,11.90
2018-05-31T07:19:19.475Z,10.55
2018-05-31T07:21:47.221Z,11.10
2018-05-31T07:24:14.891Z,11.10
2018-05-31T07:26:42.608Z,11.82
2018-05-31T07:29:11.087Z,9.95
2018-05-31T07:31:39.566Z,10.07
2018-05-31T07:34:08.003Z,10.65
2018-05-31T07:36:35.719Z,13.38
2018-05-31T07:39:03.414Z,20.67
2018-05-31T07:41:31.103Z,10.52
2018-05-31T07:43:58.769Z,12.77
2018-05-31T07:46:26.475Z,10.65
2018-05-31T07:48:54.905Z,13.20
2018-05-31T07:51:23.406Z,10.45
2018-05-31T07:53:51.063Z,10.70
2018-05-31T07:56:18.768Z,9.45
2018-05-31T07:58:46.429Z,10.27
2018-05-31T08:01:14.151Z,12.18
2018-05-31T08:03:41.829Z,9.73
2018-05-31T08:06:11.071Z,13.90
2018-05-31T08:08:38.782Z,9.35
2018-05-31T08:11:06.442Z,11.60
2018-05-31T08:13:34.157Z,11.02
2018-05-31T08:16:01.846Z,13.13
2018-05-31T08:18:29.558Z,10.23
2018-05-31T08:20:57.991Z,10.63
2018-05-31T08:23:25.701Z,11.05
2018-05-31T08:25:54.131Z,9.95
2018-05-31T08:28:21.842Z,13.15
2018-05-31T08:30:50.276Z,11.20
2018-05-31T08:33:18.003Z,10.77
2018-05-31T08:35:45.692Z,11.07
2018-05-31T08:38:13.359Z,11.25
2018-05-31T08:40:41.071Z,9.77
2018-05-31T08:43:09.487Z,12.90
2018-05-31T08:45:37.202Z,11.23
2018-05-31T08:48:05.631Z,9.38
2018-05-31T08:50:33.297Z,10.90
2018-05-31T08:53:01.002Z,12.93
2018-05-31T08:55:29.455Z,10.10
2018-05-31T08:57:57.179Z,9.98
2018-05-31T09:00:24.844Z,10.00
2018-05-31T09:02:52.561Z,11.57
2018-05-31T09:05:20.287Z,10.07
2018-05-31T09:07:48.011Z,10.48
2018-05-31T09:10:16.427Z,9.02
2018-05-31T09:12:44.122Z,9.27
2018-05-31T09:15:12.089Z,11.77
2018-05-31T09:17:40.590Z,10.68
2018-05-31T09:20:09.019Z,10.73
2018-05-31T09:22:36.674Z,12.77
2018-05-31T09:25:04.407Z,9.60
2018-05-31T09:27:32.859Z,10.40
2018-05-31T09:30:00.584Z,11.88
2018-05-31T09:32:28.239Z,10.30
2018-05-31T09:34:55.950Z,12.95
2018-05-31T09:37:23.659Z,10.75
2018-05-31T09:39:51.316Z,12.10
2018-05-31T09:42:19.028Z,13.32
2018-05-31T09:44:46.722Z,10.57
2018-05-31T09:47:15.192Z,10.25
2018-05-31T09:49:43.619Z,11.02
2018-05-31T09:52:11.323Z,13.05
2018-05-31T09:54:39.011Z,10.38
2018-05-31T09:57:06.721Z,9.60
2018-05-31T09:59:34.383Z,10.77
2018-05-31T10:02:02.107Z,11.43
2018-05-31T10:04:29.793Z,10.38
2018-05-31T10:06:57.500Z,10.77
2018-05-31T10:09:25.163Z,12.88
2018-05-31T10:11:53.651Z,12.60
2018-05-31T10:14:22.101Z,12.30
2018-05-31T10:16:49.806Z,11.32
2018-05-31T10:19:18.232Z,10.23
2018-05-31T10:21:45.931Z,9.65
2018-05-31T10:24:14.391Z,12.23
2018-05-31T10:26:42.092Z,10.45
2018-05-31T10:29:10.558Z,9.45
2018-05-31T10:31:39.024Z,9.63
2018-05-31T10:34:06.683Z,10.13
2018-05-31T10:36:34.378Z,13.27
2018-05-31T10:39:02.841Z,12.13
2018-05-31T10:41:31.272Z,9.35
2018-05-31T10:43:58.986Z,10.07
2018-05-31T10:46:27.422Z,10.30
2018-05-31T10:48:55.119Z,9.27
2018-05-31T10:51:22.792Z,9.70
2018-05-31T10:53:51.315Z,10.07
2018-05-31T10:56:18.979Z,9.23
2018-05-31T10:58:46.687Z,12.05
2018-05-31T11:01:14.359Z,11.93
2018-05-31T11:03:42.835Z,9.50
2018-05-31T11:06:10.497Z,13.45
2018-05-31T11:08:38.993Z,13.52
2018-05-31T11:11:06.723Z,10.73
2018-05-31T11:13:34.383Z,12.82
2018-05-31T11:16:02.895Z,9.55
2018-05-31T11:18:31.326Z,9.18
2018-05-31T11:20:59.001Z,10.35
2018-05-31T11:23:27.474Z,11.27
2018-05-31T11:25:55.175Z,9.07
2018-05-31T11:28:23.637Z,10.63
2018-05-31T11:30:51.348Z,10.02
2018-05-31T11:33:19.052Z,10.80
2018-05-31T11:35:46.712Z,12.85
2018-05-31T11:38:14.416Z,13.20
2018-05-31T11:40:42.835Z,12.23
2018-05-31T11:43:10.536Z,11.80
2018-05-31T11:45:38.255Z,9.27
2018-05-31T11:48:05.908Z,8.85
2018-05-31T11:50:33.560Z,9.52
2018-05-31T11:53:01.259Z,9.95
2018-05-31T11:55:28.930Z,10.15
2018-05-31T11:57:56.639Z,9.88
2018-05-31T12:00:24.346Z,9.90
2018-05-31T12:02:52.049Z,17.12
2018-05-31T12:05:20.467Z,10.10
2018-05-31T12:07:48.180Z,10.13
2018-05-31T12:10:15.839Z,9.50
2018-05-31T12:12:44.319Z,10.63
2018-05-31T12:15:11.991Z,14.13
2018-05-31T12:17:40.470Z,9.38
2018-05-31T12:20:08.896Z,9.73
2018-05-31T12:22:36.559Z,10.68
2018-05-31T12:25:04.259Z,9.98
2018-05-31T12:27:31.966Z,11.07
2018-05-31T12:29:59.661Z,10.10
2018-05-31T12:32:27.306Z,9.70
2018-05-31T12:34:55.033Z,11.55
2018-05-31T12:37:23.468Z,11.05
2018-05-31T12:39:51.194Z,10.60
2018-05-31T12:42:18.857Z,11.10
2018-05-31T12:44:46.517Z,11.48
2018-05-31T12:47:14.223Z,12.73
2018-05-31T12:49:41.984Z,9.70
2018-05-31T12:52:09.694Z,10.10
2018-05-31T12:54:38.147Z,10.07
2018-05-31T12:57:05.865Z,9.73
2018-05-31T12:59:33.529Z,10.68
2018-05-31T13:02:01.250Z,13.20
2018-05-31T13:04:29.685Z,12.60
2018-05-31T13:06:57.402Z,9.93
2018-05-31T13:09:25.830Z,14.05
2018-05-31T13:11:53.544Z,11.23
2018-05-31T13:14:21.977Z,10.18
2018-05-31T13:16:49.681Z,10.52
2018-05-31T13:19:18.102Z,10.52
2018-05-31T13:21:45.807Z,11.25
2018-05-31T13:24:13.470Z,13.23
2018-05-31T13:26:41.175Z,9.63
2018-05-31T13:29:08.831Z,9.30
2018-05-31T13:31:36.553Z,11.27
2018-05-31T13:34:04.223Z,10.68
2018-05-31T13:36:32.680Z,10.32
2018-05-31T13:39:01.765Z,9.55
2018-05-31T13:41:30.492Z,9.30
2018-05-31T13:43:58.985Z,14.43
2018-05-31T13:46:27.466Z,9.15
2018-05-31T13:48:55.894Z,9.80
2018-05-31T13:51:23.600Z,9.07
2018-05-31T13:53:52.024Z,12.25
2018-05-31T13:56:19.684Z,10.07
2018-05-31T13:58:47.404Z,9.90
2018-05-31T14:01:15.824Z,9.30
2018-05-31T14:03:43.515Z,10.02
2018-05-31T14:06:11.168Z,9.55
2018-05-31T14:08:38.872Z,9.73
2018-05-31T14:11:07.287Z,9.38
2018-05-31T14:13:34.989Z,8.60
2018-05-31T14:16:02.694Z,9.98
2018-05-31T14:18:30.354Z,10.35
2018-05-31T14:20:59.216Z,10.18
2018-05-31T14:23:28.403Z,14.65
2018-05-31T14:25:56.114Z,13.20
2018-05-31T14:28:24.111Z,9.80
2018-05-31T14:30:51.825Z,9.77
2018-05-31T14:33:20.308Z,17.90
2018-05-31T14:35:47.999Z,12.77
2018-05-31T14:38:15.663Z,9.00
2018-05-31T14:40:43.372Z,10.18
2018-05-31T14:43:11.870Z,9.18
2018-05-31T14:45:40.629Z,9.77
2018-05-31T14:48:08.342Z,9.45
2018-05-31T14:50:36.172Z,8.80
2018-05-31T14:53:04.605Z,13.55
2018-05-31T14:55:32.312Z,8.98
2018-05-31T14:58:01.289Z,8.35
2018-05-31T15:00:29.676Z,8.38
2018-05-31T15:02:57.371Z,8.73
2018-05-31T15:05:25.073Z,9.05
2018-05-31T15:07:52.752Z,9.50
2018-05-31T15:16:03.883Z,9.88
2018-05-31T15:18:33.263Z,9.77
2018-05-31T15:21:00.982Z,11.15
2018-05-31T15:23:29.467Z,9.50
2018-05-31T15:25:57.155Z,10.95
2018-05-31T15:28:24.846Z,10.48
2018-05-31T15:30:52.550Z,8.88
2018-05-31T15:33:20.211Z,13.60
2018-05-31T15:35:48.608Z,10.48
2018-05-31T15:38:17.500Z,11.18
2018-05-31T15:40:45.281Z,11.00
2018-05-31T15:43:14.703Z,10.32
2018-05-31T15:45:44.345Z,10.70
2018-05-31T15:48:12.806Z,11.15
2018-05-31T15:50:40.468Z,11.57
2018-05-31T15:53:08.939Z,9.80
2018-05-31T15:55:36.627Z,9.88
2018-05-31T15:58:05.058Z,9.35
2018-05-31T16:00:32.759Z,9.77
2018-05-31T16:03:01.199Z,10.13
2018-05-31T16:05:28.899Z,15.18
2018-05-31T16:07:57.369Z,11.60
2018-05-31T16:10:25.080Z,9.88
2018-05-31T16:12:54.543Z,17.15
2018-05-31T16:15:23.012Z,11.30
2018-05-31T16:17:50.668Z,9.68
2018-05-31T16:20:18.375Z,9.73
2018-05-31T16:22:46.584Z,10.35
2018-05-31T16:25:14.289Z,10.82
2018-05-31T16:27:42.724Z,10.98
2018-05-31T16:30:10.987Z,9.95
2018-05-31T16:32:38.641Z,9.82
2018-05-31T16:35:07.018Z,9.57
2018-05-31T16:37:35.534Z,9.32
2018-05-31T16:40:03.223Z,10.15
2018-05-31T16:42:31.688Z,11.12
2018-05-31T16:44:59.349Z,10.13
2018-05-31T16:47:28.808Z,9.73
2018-05-31T16:49:56.467Z,12.98
2018-05-31T16:52:24.169Z,13.27
2018-05-31T16:54:51.815Z,12.98
2018-05-31T16:57:19.520Z,15.68
2018-05-31T16:59:48.839Z,11.48
2018-05-31T17:02:17.250Z,11.10
2018-05-31T17:04:45.027Z,11.10
2018-05-31T17:07:12.971Z,12.93
2018-05-31T17:09:40.684Z,11.12
2018-05-31T17:12:08.343Z,11.07
2018-05-31T17:14:36.045Z,11.25
2018-05-31T17:17:04.454Z,10.73
2018-05-31T17:19:32.154Z,9.38
2018-05-31T17:21:59.806Z,10.30
2018-05-31T17:24:27.469Z,13.13
2018-05-31T17:26:55.159Z,11.10
2018-05-31T17:29:23.618Z,13.13
2018-05-31T17:31:51.330Z,10.40
2018-05-31T17:34:19.205Z,14.57
2018-05-31T17:36:47.705Z,18.12
2018-05-31T17:39:16.343Z,10.75
2018-05-31T17:41:44.435Z,11.02
2018-05-31T17:44:13.099Z,12.00
2018-05-31T17:46:40.799Z,11.43
2018-05-31T17:49:08.455Z,13.88
2018-05-31T17:51:36.160Z,11.52
2018-05-31T17:54:05.118Z,10.73
2018-05-31T17:56:32.819Z,11.63
2018-05-31T17:59:01.251Z,10.38
2018-05-31T18:01:28.960Z,11.27
2018-05-31T18:03:57.389Z,10.43
2018-05-31T18:06:27.044Z,12.68
2018-05-31T18:08:55.316Z,10.65
2018-05-31T18:11:23.032Z,12.30
2018-05-31T18:13:50.737Z,12.60
2018-05-31T18:16:18.400Z,12.30
2018-05-31T18:18:48.697Z,11.40
2018-05-31T18:21:16.366Z,11.93
2018-05-31T18:23:44.083Z,9.65
2018-05-31T18:26:11.805Z,10.20
2018-05-31T18:28:40.284Z,10.20
2018-05-31T18:31:09.791Z,10.38
2018-05-31T18:33:37.514Z,11.50
2018-05-31T18:36:05.183Z,10.77
2018-05-31T18:38:32.856Z,9.38
2018-05-31T18:41:01.533Z,9.70
2018-05-31T18:43:29.193Z,11.00
2018-05-31T18:45:56.905Z,12.27
2018-05-31T18:48:29.188Z,12.35
2018-05-31T18:50:57.657Z,11.75
2018-05-31T18:53:26.083Z,9.60
2018-05-31T18:55:53.783Z,10.20
2018-05-31T18:58:21.450Z,10.13
2018-05-31T19:00:49.173Z,10.95
2018-05-31T19:03:16.832Z,9.50
2018-05-31T19:05:45.161Z,15.82
2018-05-31T19:08:14.984Z,15.38
2018-05-31T19:10:44.087Z,11.60
2018-05-31T19:13:17.577Z,10.90
2018-05-31T19:15:46.049Z,11.77
2018-05-31T19:18:20.111Z,12.60
2018-05-31T19:20:47.837Z,18.73
2018-05-31T19:23:16.271Z,11.80
2018-05-31T19:25:43.982Z,13.73
2018-05-31T19:28:12.413Z,11.33
2018-05-31T19:30:48.608Z,13.90
2018-05-31T19:33:17.048Z,13.47
2018-05-31T19:35:50.591Z,12.73
2018-05-31T19:38:19.970Z,12.30
2018-05-31T19:40:47.679Z,13.37
2018-05-31T19:43:21.135Z,13.77
2018-05-31T19:45:49.360Z,13.60
2018-05-31T19:48:17.091Z,14.97
2018-05-31T19:50:46.487Z,12.63
2018-05-31T19:56:16.104Z,13.73
2018-05-31T19:58:51.168Z,11.73
2018-05-31T20:01:25.955Z,12.07
2018-05-31T20:03:53.676Z,12.73
2018-05-31T20:06:23.477Z,12.70
2018-05-31T20:08:54.631Z,11.70
2018-05-31T20:11:22.300Z,12.40
2018-05-31T20:13:53.827Z,12.07
2018-05-31T20:16:21.548Z,16.20
2018-05-31T20:18:49.271Z,13.37
2018-05-31T20:21:19.083Z,12.23
2018-05-31T20:23:48.519Z,11.73
2018-05-31T20:26:17.175Z,12.37
2018-05-31T20:28:45.077Z,12.80
2018-05-31T20:31:12.788Z,12.37
2018-05-31T20:33:42.136Z,11.93
2018-05-31T20:36:09.835Z,13.77
2018-05-31T20:38:38.585Z,14.33
2018-05-31T20:41:06.291Z,13.97
2018-05-31T20:43:35.515Z,12.80
2018-05-31T20:46:04.092Z,13.47
2018-05-31T20:48:31.763Z,17.10
2018-05-31T20:50:59.472Z,13.30
2018-05-31T20:53:27.271Z,14.13
2018-05-31T20:55:55.701Z,13.33
2018-05-31T20:58:23.367Z,15.00
2018-05-31T21:00:51.083Z,14.77
2018-05-31T21:03:18.771Z,16.37
2018-05-31T21:05:46.433Z,13.60
2018-05-31T21:08:14.710Z,16.00
2018-05-31T21:10:42.439Z,12.77
2018-05-31T21:13:10.872Z,12.07
2018-05-31T21:15:39.223Z,13.93
2018-05-31T21:18:06.927Z,15.70
2018-05-31T21:20:34.601Z,12.73
2018-05-31T21:23:03.084Z,14.43
2018-05-31T21:25:31.512Z,14.47
2018-05-31T21:27:59.207Z,13.27
2018-05-31T21:30:26.868Z,14.33
2018-05-31T21:32:54.599Z,14.53
2018-05-31T21:35:22.270Z,12.50
2018-05-31T21:37:49.975Z,12.57
2018-05-31T21:40:18.403Z,15.97
2018-05-31T21:42:46.122Z,14.33
2018-05-31T21:45:13.827Z,14.63
2018-05-31T21:47:41.527Z,14.27
2018-05-31T21:50:09.254Z,15.27
2018-05-31T21:52:36.947Z,19.60
2018-05-31T21:55:04.702Z,13.83
2018-05-31T21:57:32.356Z,13.10
2018-05-31T22:00:00.056Z,16.50
2018-05-31T22:02:28.482Z,14.03
2018-05-31T22:04:56.195Z,15.93
2018-05-31T22:07:24.466Z,14.13
2018-05-31T22:12:26.983Z,15.43
2018-05-31T22:14:55.453Z,13.57
2018-05-31T22:17:24.542Z,12.70
2018-05-31T22:19:53.017Z,13.53
2018-05-31T22:22:20.675Z,15.13
2018-05-31T22:24:49.336Z,14.10
2018-05-31T22:27:17.858Z,13.97
2018-05-31T22:29:46.301Z,13.83
2018-05-31T22:32:16.929Z,15.13
2018-05-31T22:34:44.589Z,14.17
2018-05-31T22:37:12.257Z,15.60
2018-05-31T22:39:41.259Z,13.07
2018-05-31T22:42:09.952Z,14.33
2018-05-31T22:44:38.597Z,14.43
2018-05-31T22:47:06.263Z,13.37
2018-05-31T22:49:33.967Z,13.33
2018-05-31T22:52:01.622Z,14.70
2018-05-31T22:54:29.942Z,13.47
2018-05-31T22:56:57.611Z,13.40
2018-05-31T22:59:25.317Z,14.70
2018-05-31T23:01:53.773Z,12.43
2018-05-31T23:04:21.712Z,12.93
2018-05-31T23:06:49.383Z,13.60
2018-05-31T23:09:17.114Z,12.93
2018-05-31T23:11:45.537Z,13.83
2018-05-31T23:14:14.060Z,11.10
2018-05-31T23:16:41.811Z,12.87
2018-05-31T23:19:09.469Z,12.83
2018-05-31T23:21:37.171Z,13.17
2018-05-31T23:24:06.363Z,13.43
2018-05-31T23:26:34.834Z,13.83
2018-05-31T23:29:03.465Z,13.53
2018-05-31T23:31:31.163Z,12.20
2018-05-31T23:34:01.707Z,15.80
2018-05-31T23:36:29.419Z,11.37
2018-05-31T23:38:57.079Z,11.53
2018-05-31T23:41:25.360Z,12.07
2018-05-31T23:43:53.054Z,11.80
2018-05-31T23:46:20.750Z,13.73
2018-05-31T23:48:50.138Z,13.83
2018-05-31T23:51:17.788Z,12.57
2018-05-31T23:53:45.483Z,13.10
2018-05-31T23:56:15.878Z,12.23
2018-05-31T23:58:43.603Z,13.10
